Time;durP1;ratioP1;P1;durP2;ratioP2;P2;SDS_P1;SDS_P2;PMS_P1;PMS_P2;Temp;Humidity;BMP_temperature;BMP_pressure;BME280_temperature;BME280_humidity;BME280_pressure;Samples;Min_cycle;Max_cycle;Signal;HPM_P1;HPM_P2
2021/12/17 00:01:50;;;;;;;9.23;8.93;;;7.20;99.90;;;;;;5097380;28;20217;-79
2021/12/17 00:04:27;;;;;;;9.00;8.70;;;7.20;99.90;;;;;;5098722;28;20229;-79
2021/12/17 00:06:59;;;;;;;8.70;8.50;;;7.10;99.90;;;;;;5100396;28;20228;-80
2021/12/17 00:12:14;;;;;;;9.30;9.00;;;7.10;99.90;;;;;;5099650;28;20230;-79
2021/12/17 00:14:47;;;;;;;9.40;9.10;;;7.10;99.90;;;;;;5099736;28;20237;-80
2021/12/17 00:17:20;;;;;;;9.27;8.97;;;7.10;99.90;;;;;;5099582;28;20229;-79
2021/12/17 00:20:03;;;;;;;9.30;9.00;;;7.10;99.90;;;;;;5099673;28;20230;-79
2021/12/17 00:50:22;;;;;;;9.20;8.90;;;6.90;99.90;;;;;;5099861;28;20229;-79
2021/12/17 00:52:50;;;;;;;9.20;8.90;;;6.90;99.90;;;;;;5099655;28;20314;-79
2021/12/17 00:55:19;;;;;;;9.20;8.90;;;6.80;99.90;;;;;;5091534;28;20275;-79
2021/12/17 00:57:46;;;;;;;9.23;8.93;;;6.80;99.90;;;;;;5099032;28;20282;-79
2021/12/17 01:00:24;;;;;;;9.20;8.90;;;6.80;99.90;;;;;;5098684;28;20233;-78
2021/12/17 01:02:52;;;;;;;9.17;8.87;;;6.70;99.90;;;;;;5098814;28;20316;-78
2021/12/17 01:05:29;;;;;;;9.20;8.90;;;6.60;99.90;;;;;;5099056;28;20233;-79
2021/12/17 01:08:02;;;;;;;9.30;9.00;;;6.60;99.90;;;;;;5099341;28;20263;-78
2021/12/17 01:10:36;;;;;;;9.17;8.87;;;6.60;99.90;;;;;;5099411;28;20260;-78
2021/12/17 01:13:07;;;;;;;9.30;9.00;;;6.70;99.90;;;;;;5100326;28;20233;-79
2021/12/17 01:15:37;;;;;;;9.03;8.73;;;6.60;99.90;;;;;;5099654;28;20210;-79
2021/12/17 01:18:10;;;;;;;9.37;9.07;;;6.60;99.90;;;;;;5100265;28;20275;-79
2021/12/17 01:21:06;;;;;;;9.47;9.17;;;6.60;99.90;;;;;;5099515;28;20240;-79
2021/12/17 01:24:03;;;;;;;9.20;8.90;;;6.50;99.90;;;;;;5100602;28;20257;-78
2021/12/17 01:43:06;;;;;;;9.30;9.00;;;6.30;99.90;;;;;;5096842;28;20324;-79
2021/12/17 01:45:38;;;;;;;9.30;9.00;;;6.30;99.90;;;;;;5101760;28;20221;-79
2021/12/17 01:48:12;;;;;;;9.30;9.00;;;6.30;99.90;;;;;;5099415;28;20313;-78
2021/12/17 01:56:31;;;;;;;9.00;8.70;;;6.30;99.90;;;;;;5098565;28;20209;-79
2021/12/17 01:59:21;;;;;;;9.40;9.10;;;6.20;99.90;;;;;;5098426;28;20236;-79
2021/12/17 02:01:50;;;;;;;9.23;8.93;;;6.20;99.90;;;;;;5098502;28;20241;-79
2021/12/17 02:04:20;;;;;;;8.77;8.57;;;6.20;99.90;;;;;;5098043;28;20233;-79
2021/12/17 02:06:51;;;;;;;9.10;8.80;;;6.20;99.90;;;;;;5101319;28;20225;-78
2021/12/17 02:12:31;;;;;;;9.10;8.80;;;6.10;99.90;;;;;;5102043;28;20225;-79
2021/12/17 02:29:24;;;;;;;9.50;9.20;;;6.10;99.90;;;;;;5101728;28;20233;-79
2021/12/17 02:31:59;;;;;;;9.27;8.97;;;6.00;99.90;;;;;;5101381;28;20229;-79
2021/12/17 02:34:45;;;;;;;9.53;9.23;;;6.00;99.90;;;;;;5103847;28;20239;-78
2021/12/17 02:37:20;;;;;;;9.50;9.20;;;6.00;99.90;;;;;;5105415;28;20229;-78
2021/12/17 02:40:05;;;;;;;9.20;8.90;;;6.00;99.90;;;;;;5104795;28;20264;-78
2021/12/17 02:45:31;;;;;;;9.57;9.27;;;6.00;99.90;;;;;;5100820;28;20321;-79
2021/12/17 02:45:34;;;;;;;9.33;9.03;;;5.90;99.90;;;;;;5101053;28;20267;-79
2021/12/17 02:48:06;;;;;;;9.00;8.70;;;5.90;99.90;;;;;;5099552;28;20325;-80
2021/12/17 02:50:36;;;;;;;9.37;9.07;;;5.90;99.90;;;;;;5100910;28;20237;-78
2021/12/17 02:53:09;;;;;;;9.20;8.90;;;5.90;99.90;;;;;;5102246;28;20237;-79
2021/12/17 02:55:42;;;;;;;9.03;8.73;;;5.90;99.90;;;;;;5104191;28;20230;-78
2021/12/17 02:58:10;;;;;;;9.10;8.80;;;5.90;99.90;;;;;;5116694;28;20229;-78
2021/12/17 03:00:42;;;;;;;9.10;8.80;;;5.90;99.90;;;;;;5116100;28;20233;-78
2021/12/17 03:03:11;;;;;;;8.90;8.60;;;5.90;99.90;;;;;;5116721;28;20252;-78
2021/12/17 03:05:41;;;;;;;8.90;8.60;;;5.90;99.90;;;;;;5105812;28;20304;-79
2021/12/17 03:08:16;;;;;;;9.00;8.70;;;6.00;99.90;;;;;;5100708;28;20243;-78
2021/12/17 03:10:47;;;;;;;9.03;8.73;;;5.90;99.90;;;;;;5100584;28;20233;-78
2021/12/17 03:13:16;;;;;;;9.20;8.90;;;5.90;99.90;;;;;;5100479;28;20264;-78
2021/12/17 03:15:49;;;;;;;9.03;8.73;;;5.90;99.90;;;;;;5099280;28;20221;-78
2021/12/17 03:23:50;;;;;;;8.90;8.60;;;5.70;99.90;;;;;;5100165;28;20206;-79
2021/12/17 03:26:20;;;;;;;9.20;8.90;;;5.60;99.90;;;;;;5099947;28;20306;-78
2021/12/17 03:28:52;;;;;;;9.03;8.73;;;5.60;99.90;;;;;;5099612;28;20241;-79
2021/12/17 03:31:22;;;;;;;9.07;8.77;;;5.70;99.90;;;;;;5099890;28;20252;-78
2021/12/17 03:34:00;;;;;;;9.60;9.30;;;5.60;99.90;;;;;;5100343;28;20762;-78
2021/12/17 03:36:28;;;;;;;9.60;9.30;;;5.60;99.90;;;;;;5101084;28;20260;-79
2021/12/17 03:38:57;;;;;;;9.30;9.00;;;5.60;99.90;;;;;;5100106;28;20260;-78
2021/12/17 03:41:33;;;;;;;9.50;9.20;;;5.70;99.90;;;;;;5134932;22;20224;-81
2021/12/17 03:44:00;;;;;;;9.30;9.00;;;5.70;99.90;;;;;;5142786;27;20255;-82
2021/12/17 03:46:28;;;;;;;9.60;9.30;;;5.70;99.90;;;;;;5139750;27;20286;-80
2021/12/17 03:48:56;;;;;;;9.60;9.30;;;5.60;99.90;;;;;;5138545;27;20232;-81
2021/12/17 03:51:24;;;;;;;9.20;8.90;;;5.60;99.90;;;;;;5138832;27;20240;-81
2021/12/17 03:53:54;;;;;;;9.40;9.10;;;5.60;99.90;;;;;;5139190;27;20308;-81
2021/12/17 03:56:25;;;;;;;9.60;9.30;;;5.60;99.90;;;;;;5138974;27;20232;-81
2021/12/17 03:58:55;;;;;;;9.70;9.40;;;5.60;99.90;;;;;;5139007;27;20258;-80
2021/12/17 04:01:23;;;;;;;9.17;8.87;;;5.50;99.90;;;;;;5138845;27;20243;-81
2021/12/17 04:03:50;;;;;;;9.50;9.20;;;5.50;99.90;;;;;;5138993;27;20760;-80
2021/12/17 04:06:18;;;;;;;9.40;9.10;;;5.50;99.90;;;;;;5138215;27;20224;-81
2021/12/17 04:08:46;;;;;;;9.57;9.27;;;5.40;99.90;;;;;;5141806;27;20220;-81
2021/12/17 04:11:18;;;;;;;9.47;9.17;;;5.40;99.90;;;;;;5152804;27;20236;-79
2021/12/17 04:13:53;;;;;;;9.20;8.90;;;5.40;99.90;;;;;;5140867;27;20232;-81
2021/12/17 04:16:26;;;;;;;9.10;8.80;;;5.30;99.90;;;;;;5138335;27;20280;-81
2021/12/17 04:18:54;;;;;;;9.50;9.20;;;5.30;99.90;;;;;;5138235;27;20388;-80
2021/12/17 04:21:22;;;;;;;9.30;9.00;;;5.30;99.90;;;;;;5138656;27;20232;-81
2021/12/17 04:23:53;;;;;;;9.10;8.80;;;5.20;99.90;;;;;;5138793;27;20277;-81
2021/12/17 04:26:23;;;;;;;9.70;9.40;;;5.20;99.90;;;;;;5138751;27;20300;-81
2021/12/17 04:28:53;;;;;;;9.60;9.30;;;5.20;99.90;;;;;;5137819;27;20254;-81
2021/12/17 04:31:26;;;;;;;9.63;9.33;;;5.20;99.90;;;;;;5139104;27;20227;-81
2021/12/17 04:33:54;;;;;;;9.60;9.30;;;5.20;99.90;;;;;;5141082;27;20315;-81
2021/12/17 04:36:26;;;;;;;9.60;9.30;;;5.20;99.90;;;;;;5141846;27;20224;-80
2021/12/17 04:38:55;;;;;;;9.50;9.20;;;5.20;99.90;;;;;;5141252;27;20274;-81
2021/12/17 04:41:44;;;;;;;9.57;9.27;;;5.10;99.90;;;;;;5139053;27;20251;-81
2021/12/17 04:44:17;;;;;;;9.97;9.67;;;5.10;99.90;;;;;;5123246;27;20228;-81
2021/12/17 04:46:50;;;;;;;9.70;9.40;;;5.10;99.90;;;;;;5139558;27;20232;-80
2021/12/17 04:57:38;;;;;;;9.57;9.27;;;5.10;99.90;;;;;;5140021;27;20274;-80
2021/12/17 05:00:13;;;;;;;9.90;9.60;;;5.10;99.90;;;;;;5139447;27;20235;-80
2021/12/17 05:02:44;;;;;;;9.60;9.30;;;5.10;99.90;;;;;;5142061;27;20219;-80
2021/12/17 05:05:14;;;;;;;9.50;9.20;;;5.20;99.90;;;;;;5142532;27;20315;-81
2021/12/17 05:07:48;;;;;;;9.40;9.10;;;5.20;99.90;;;;;;5140735;27;20254;-80
2021/12/17 05:10:25;;;;;;;9.30;9.00;;;5.30;99.90;;;;;;5139861;27;20286;-80
2021/12/17 05:18:29;;;;;;;9.50;9.20;;;5.00;99.90;;;;;;5125853;27;20220;-82
2021/12/17 05:21:08;;;;;;;9.70;9.40;;;5.10;99.90;;;;;;5145627;27;20232;-81
2021/12/17 05:23:41;;;;;;;9.60;9.30;;;5.10;99.90;;;;;;5144170;27;20255;-81
2021/12/17 05:26:13;;;;;;;9.50;9.20;;;5.10;99.90;;;;;;5144175;27;20228;-81
2021/12/17 05:28:41;;;;;;;9.50;9.20;;;5.10;99.90;;;;;;5141928;27;20224;-81
2021/12/17 05:31:10;;;;;;;9.60;9.30;;;5.10;99.90;;;;;;5139224;27;20232;-81
2021/12/17 05:33:38;;;;;;;9.60;9.30;;;5.10;99.90;;;;;;5139736;27;20239;-81
2021/12/17 05:36:06;;;;;;;9.60;9.30;;;5.10;99.90;;;;;;5150271;27;20212;-80
2021/12/17 05:38:34;;;;;;;9.60;9.30;;;5.00;99.90;;;;;;5155289;27;20236;-81
2021/12/17 05:41:02;;;;;;;9.47;9.17;;;4.90;99.90;;;;;;5143387;27;20235;-81
2021/12/17 05:43:35;;;;;;;9.60;9.30;;;4.90;99.90;;;;;;5144218;27;20231;-81
2021/12/17 05:46:09;;;;;;;9.50;9.20;;;4.90;99.90;;;;;;5142944;27;20283;-81
2021/12/17 05:48:39;;;;;;;9.60;9.30;;;4.80;99.90;;;;;;5143721;27;20231;-81
2021/12/17 05:51:09;;;;;;;9.80;9.50;;;4.90;99.90;;;;;;5143525;27;20258;-81
2021/12/17 05:53:37;;;;;;;9.47;9.17;;;4.90;99.90;;;;;;5143815;27;20236;-81
2021/12/17 05:56:06;;;;;;;9.37;9.07;;;4.80;99.90;;;;;;5146357;27;20274;-78
2021/12/17 05:58:34;;;;;;;9.40;9.10;;;4.80;99.90;;;;;;5144887;27;20228;-81
2021/12/17 06:01:01;;;;;;;9.60;9.30;;;4.90;99.90;;;;;;5145830;27;20236;-83
2021/12/17 06:03:30;;;;;;;9.43;9.13;;;4.90;99.90;;;;;;5149849;27;20220;-81
2021/12/17 06:05:59;;;;;;;9.60;9.30;;;4.90;99.90;;;;;;5143179;27;20228;-80
2021/12/17 06:08:27;;;;;;;9.40;9.10;;;5.00;99.90;;;;;;5143673;27;20227;-81
2021/12/17 06:10:55;;;;;;;9.33;9.03;;;4.90;99.90;;;;;;5148302;27;20240;-80
2021/12/17 06:13:22;;;;;;;9.40;9.10;;;4.90;99.90;;;;;;5149646;27;20246;-80
2021/12/17 06:15:50;;;;;;;9.20;8.90;;;5.00;99.90;;;;;;5154543;27;20304;-80
2021/12/17 06:18:18;;;;;;;9.47;9.17;;;5.00;99.90;;;;;;5149738;27;20228;-81
2021/12/17 06:20:46;;;;;;;9.47;9.17;;;5.00;99.90;;;;;;5148361;27;20231;-81
2021/12/17 06:23:15;;;;;;;9.80;9.50;;;5.00;99.90;;;;;;5149917;27;20230;-81
2021/12/17 06:25:42;;;;;;;9.50;9.20;;;5.00;99.90;;;;;;5148465;27;20212;-81
2021/12/17 06:28:14;;;;;;;9.53;9.23;;;4.90;99.90;;;;;;5146929;27;20228;-80
2021/12/17 06:30:42;;;;;;;9.50;9.20;;;4.90;99.90;;;;;;5146390;27;20591;-81
2021/12/17 06:33:10;;;;;;;9.37;9.07;;;4.90;99.90;;;;;;5146681;27;20274;-81
2021/12/17 06:35:38;;;;;;;9.40;9.10;;;4.80;99.90;;;;;;5154721;27;20220;-81
2021/12/17 06:38:06;;;;;;;9.33;9.03;;;4.80;99.90;;;;;;5155199;27;20224;-81
2021/12/17 06:40:35;;;;;;;9.40;9.10;;;4.70;99.90;;;;;;5148224;27;20256;-81
2021/12/17 06:43:03;;;;;;;9.33;9.03;;;4.70;99.90;;;;;;5146220;27;20228;-81
2021/12/17 06:45:45;;;;;;;9.23;8.93;;;4.70;99.90;;;;;;5145444;27;20229;-81
2021/12/17 06:48:14;;;;;;;9.80;9.50;;;4.60;99.90;;;;;;5144611;27;20293;-81
2021/12/17 06:59:05;;;;;;;10.20;9.90;;;4.60;99.90;;;;;;5145425;27;20223;-81
2021/12/17 07:19:04;;;;;;;10.90;10.53;;;4.50;99.90;;;;;;5142424;27;20211;-81
2021/12/17 07:21:38;;;;;;;11.10;10.70;;;4.50;99.90;;;;;;5143184;27;20238;-81
2021/12/17 07:32:41;;;;;;;10.67;10.37;;;4.40;99.90;;;;;;5144479;27;20223;-80
2021/12/17 07:40:44;;;;;;;10.33;10.03;;;4.40;99.90;;;;;;5141916;27;20216;-82
2021/12/17 07:43:22;;;;;;;10.40;10.10;;;4.40;99.90;;;;;;5139989;27;20231;-82
2021/12/17 07:45:51;;;;;;;10.60;10.30;;;4.30;99.90;;;;;;5140963;27;20236;-82
2021/12/17 07:48:19;;;;;;;10.60;10.30;;;4.30;99.90;;;;;;5139735;27;20231;-81
2021/12/17 07:50:47;;;;;;;10.90;10.50;;;4.40;99.90;;;;;;5139990;27;20243;-81
2021/12/17 07:53:15;;;;;;;10.97;10.57;;;4.40;99.90;;;;;;5139126;27;20224;-81
2021/12/17 07:55:42;;;;;;;10.60;10.30;;;4.30;99.90;;;;;;5139177;27;20228;-80
2021/12/17 07:58:11;;;;;;;10.50;10.20;;;4.30;99.90;;;;;;5140918;27;20711;-80
2021/12/17 08:00:40;;;;;;;10.53;10.23;;;4.30;99.90;;;;;;5141732;27;20241;-81
2021/12/17 08:03:11;;;;;;;10.40;10.10;;;4.40;99.90;;;;;;5141061;27;20239;-82
2021/12/17 08:05:39;;;;;;;10.50;10.20;;;4.40;99.90;;;;;;5140339;27;20228;-83
2021/12/17 08:08:07;;;;;;;10.43;10.13;;;4.40;99.90;;;;;;5139715;27;20243;-82
2021/12/17 08:10:34;;;;;;;10.47;10.17;;;4.40;99.90;;;;;;5141154;27;20266;-81
2021/12/17 08:13:05;;;;;;;10.50;10.20;;;4.40;99.90;;;;;;5150930;27;20235;-82
2021/12/17 08:15:42;;;;;;;10.60;10.30;;;4.40;99.90;;;;;;5144444;27;20224;-81
2021/12/17 08:18:26;;;;;;;10.23;9.93;;;4.50;99.90;;;;;;5140969;27;20224;-82
2021/12/17 08:26:29;;;;;;;10.70;10.40;;;4.40;99.90;;;;;;5138106;27;20208;-81
2021/12/17 08:29:23;;;;;;;10.53;10.23;;;4.40;99.90;;;;;;5137245;27;20281;-80
2021/12/17 08:31:51;;;;;;;10.53;10.23;;;4.50;99.90;;;;;;5136841;27;20234;-80
2021/12/17 08:34:21;;;;;;;10.60;10.30;;;4.40;99.90;;;;;;5137111;27;20228;-81
2021/12/17 08:36:49;;;;;;;10.40;10.10;;;4.50;99.90;;;;;;5136982;27;20231;-83
2021/12/17 08:39:16;;;;;;;10.57;10.27;;;4.50;99.90;;;;;;5138090;27;20227;-83
2021/12/17 08:41:44;;;;;;;10.40;10.10;;;4.50;99.90;;;;;;5146728;27;20232;-80
2021/12/17 08:44:12;;;;;;;10.57;10.27;;;4.50;99.90;;;;;;5140580;27;20278;-82
2021/12/17 08:46:40;;;;;;;10.40;10.10;;;4.50;99.90;;;;;;5138801;27;20232;-81
2021/12/17 08:49:09;;;;;;;10.60;10.30;;;4.40;99.90;;;;;;5137871;27;20263;-81
2021/12/17 08:51:39;;;;;;;10.70;10.40;;;4.40;99.90;;;;;;5139284;27;20244;-81
2021/12/17 08:54:07;;;;;;;10.37;10.07;;;4.40;99.90;;;;;;5138481;27;20262;-80
2021/12/17 08:56:38;;;;;;;10.33;10.03;;;4.40;99.90;;;;;;5139216;27;20216;-80
2021/12/17 08:59:08;;;;;;;10.47;10.17;;;4.50;99.90;;;;;;5147011;27;20338;-80
2021/12/17 09:01:36;;;;;;;10.40;10.10;;;4.50;99.90;;;;;;5146129;27;20285;-80
2021/12/17 09:04:05;;;;;;;10.27;9.97;;;4.60;99.90;;;;;;5141860;27;20232;-78
2021/12/17 09:06:33;;;;;;;10.10;9.80;;;4.60;99.90;;;;;;5140937;27;20230;-81
2021/12/17 09:09:04;;;;;;;10.33;10.03;;;4.60;99.90;;;;;;5138198;27;20227;-78
2021/12/17 09:11:32;;;;;;;10.53;10.23;;;4.50;99.90;;;;;;5135680;27;20243;-78
2021/12/17 09:14:02;;;;;;;10.10;9.80;;;4.60;99.90;;;;;;5136513;27;20286;-83
2021/12/17 09:16:33;;;;;;;10.20;9.90;;;4.60;99.90;;;;;;5139777;27;20231;-82
2021/12/17 09:19:00;;;;;;;10.30;10.00;;;4.60;99.90;;;;;;5146011;27;20318;-81
2021/12/17 09:21:28;;;;;;;10.30;10.00;;;4.60;99.90;;;;;;5142041;27;20305;-81
2021/12/17 09:23:56;;;;;;;10.23;9.93;;;4.50;99.90;;;;;;5138941;27;20254;-81
2021/12/17 09:26:26;;;;;;;10.47;10.17;;;4.40;99.90;;;;;;5137926;27;20232;-82
2021/12/17 09:28:54;;;;;;;10.50;10.20;;;4.40;99.90;;;;;;5136603;27;20235;-82
2021/12/17 09:31:22;;;;;;;10.80;10.50;;;4.40;99.90;;;;;;5136344;27;20262;-81
2021/12/17 09:33:51;;;;;;;10.77;10.47;;;4.40;99.90;;;;;;5136490;27;20224;-82
2021/12/17 09:36:20;;;;;;;10.47;10.17;;;4.20;99.90;;;;;;5136446;27;20231;-82
2021/12/17 09:38:50;;;;;;;10.53;10.23;;;4.10;99.90;;;;;;5137483;27;20232;-83
2021/12/17 09:41:19;;;;;;;10.70;10.40;;;4.10;99.90;;;;;;5137083;27;20285;-82
2021/12/17 09:43:49;;;;;;;10.50;10.20;;;4.10;99.90;;;;;;5161068;22;20228;-79
2021/12/17 09:46:18;;;;;;;10.40;10.10;;;4.20;99.90;;;;;;5097765;28;20233;-79
2021/12/17 09:48:48;;;;;;;10.73;10.43;;;4.20;99.90;;;;;;5100334;28;20256;-80
2021/12/17 09:51:18;;;;;;;10.67;10.37;;;4.20;99.90;;;;;;5114008;27;20217;-78
2021/12/17 09:53:47;;;;;;;10.60;10.30;;;4.30;99.90;;;;;;5105360;28;20282;-80
2021/12/17 09:56:14;;;;;;;10.47;10.17;;;4.30;99.90;;;;;;5092914;28;20283;-80
2021/12/17 09:58:42;;;;;;;10.63;10.33;;;4.30;99.90;;;;;;5082066;28;20282;-80
2021/12/17 10:01:11;;;;;;;10.57;10.27;;;4.40;99.90;;;;;;5078809;28;20218;-80
2021/12/17 10:03:39;;;;;;;10.50;10.20;;;4.30;99.90;;;;;;5078926;28;20229;-80
2021/12/17 10:06:21;;;;;;;10.60;10.30;;;4.40;99.90;;;;;;5078650;28;20234;-80
2021/12/17 10:08:49;;;;;;;10.57;10.27;;;4.30;99.90;;;;;;5078467;28;20248;-80
2021/12/17 10:11:20;;;;;;;10.43;10.13;;;4.30;99.90;;;;;;5086791;28;20238;-81
2021/12/17 10:13:48;;;;;;;10.60;10.30;;;4.20;99.90;;;;;;5097548;28;20230;-79
2021/12/17 10:16:22;;;;;;;10.77;10.47;;;4.30;99.90;;;;;;5098922;28;20312;-79
2021/12/17 10:18:51;;;;;;;10.40;10.10;;;4.20;99.90;;;;;;5099951;28;20234;-80
2021/12/17 10:21:23;;;;;;;10.50;10.20;;;4.20;99.90;;;;;;5100467;28;20221;-80
2021/12/17 10:23:53;;;;;;;10.30;10.00;;;4.30;99.90;;;;;;5100573;28;20229;-81
2021/12/17 10:26:24;;;;;;;10.57;10.27;;;4.30;99.90;;;;;;5101438;28;20233;-81
2021/12/17 10:28:56;;;;;;;10.80;10.50;;;4.30;99.90;;;;;;5095327;28;20225;-80
2021/12/17 10:31:27;;;;;;;10.70;10.40;;;4.30;99.90;;;;;;5083377;28;20230;-81
2021/12/17 10:33:59;;;;;;;10.83;10.53;;;4.40;99.90;;;;;;5082999;28;20288;-80
2021/12/17 10:36:32;;;;;;;10.47;10.17;;;4.40;99.90;;;;;;5082466;28;20298;-81
2021/12/17 10:39:04;;;;;;;10.47;10.17;;;4.50;99.90;;;;;;5083042;28;20317;-80
2021/12/17 10:41:33;;;;;;;10.67;10.37;;;4.60;99.90;;;;;;5090493;28;20233;-81
2021/12/17 10:44:10;;;;;;;10.77;10.47;;;4.50;99.90;;;;;;5099225;28;20242;-81
2021/12/17 10:46:56;;;;;;;10.90;10.60;;;4.50;99.90;;;;;;5091271;28;20229;-81
2021/12/17 10:49:27;;;;;;;10.70;10.40;;;4.50;99.90;;;;;;5089741;28;20230;-81
2021/12/17 10:52:08;;;;;;;10.67;10.37;;;4.50;99.90;;;;;;5101125;28;20225;-81
2021/12/17 10:54:36;;;;;;;10.50;10.20;;;4.50;99.90;;;;;;5101058;28;20267;-80
2021/12/17 10:57:09;;;;;;;10.50;10.20;;;4.60;99.90;;;;;;5103427;28;20279;-81
2021/12/17 10:59:39;;;;;;;10.40;10.10;;;4.70;99.90;;;;;;5103808;28;20242;-81
2021/12/17 11:02:12;;;;;;;10.50;10.20;;;4.70;99.90;;;;;;5103912;28;20243;-81
2021/12/17 11:04:42;;;;;;;10.23;9.93;;;4.70;99.90;;;;;;5103495;28;20244;-81
2021/12/17 11:07:13;;;;;;;10.60;10.30;;;4.60;99.90;;;;;;5104187;28;20252;-81
2021/12/17 11:09:48;;;;;;;10.20;9.90;;;4.70;99.90;;;;;;5104923;28;20225;-80
2021/12/17 11:12:35;;;;;;;10.37;10.07;;;4.70;99.90;;;;;;5118576;28;20240;-80
2021/12/17 11:15:22;;;;;;;10.30;10.00;;;4.70;99.90;;;;;;5117632;28;20261;-80
2021/12/17 11:17:54;;;;;;;10.23;9.93;;;4.70;99.90;;;;;;5102356;28;20229;-80
2021/12/17 11:20:27;;;;;;;10.47;10.17;;;4.70;99.90;;;;;;5101965;28;20237;-81
2021/12/17 11:23:03;;;;;;;10.50;10.20;;;4.60;99.90;;;;;;5102031;28;20234;-81
2021/12/17 11:25:31;;;;;;;10.30;10.00;;;4.60;99.90;;;;;;5101832;28;20257;-81
2021/12/17 11:27:59;;;;;;;10.00;9.70;;;4.70;99.90;;;;;;5119446;27;20264;-79
2021/12/17 11:30:30;;;;;;;10.00;9.70;;;4.80;99.90;;;;;;5120512;27;20210;-81
2021/12/17 11:33:01;;;;;;;9.80;9.50;;;4.70;99.90;;;;;;5115502;28;20241;-81
2021/12/17 11:35:32;;;;;;;10.07;9.77;;;4.80;99.90;;;;;;5104557;28;20244;-80
2021/12/17 11:38:04;;;;;;;9.70;9.40;;;4.90;99.90;;;;;;5103730;28;20256;-81
2021/12/17 11:40:34;;;;;;;9.87;9.57;;;4.90;99.90;;;;;;5102658;28;20225;-81
2021/12/17 11:43:28;;;;;;;10.20;9.90;;;4.80;99.90;;;;;;5102690;28;20260;-81
2021/12/17 11:46:02;;;;;;;10.50;10.20;;;4.80;99.90;;;;;;5101281;28;21047;-81
2021/12/17 11:48:36;;;;;;;10.40;10.10;;;4.80;99.90;;;;;;5102422;28;20327;-80
2021/12/17 11:51:13;;;;;;;10.30;10.00;;;4.80;99.90;;;;;;5101466;28;20229;-81
2021/12/17 11:54:02;;;;;;;10.17;9.87;;;4.90;99.90;;;;;;5101477;28;20310;-80
2021/12/17 11:56:48;;;;;;;10.50;10.20;;;5.00;99.90;;;;;;5101462;28;20241;-81
2021/12/17 11:59:38;;;;;;;10.60;10.30;;;5.10;99.90;;;;;;5101967;28;20232;-81
2021/12/17 12:02:15;;;;;;;10.27;9.97;;;5.20;99.90;;;;;;5116793;28;20224;-81
2021/12/17 12:04:54;;;;;;;10.70;10.40;;;5.20;99.90;;;;;;5108478;28;20589;-81
2021/12/17 12:07:36;;;;;;;10.37;10.07;;;5.20;99.90;;;;;;5104050;28;20229;-81
2021/12/17 12:10:22;;;;;;;10.40;10.10;;;5.10;99.90;;;;;;5103796;28;20248;-80
2021/12/17 12:12:58;;;;;;;10.47;10.17;;;5.10;99.90;;;;;;5102261;28;20279;-81
2021/12/17 12:15:40;;;;;;;10.27;9.97;;;5.00;99.90;;;;;;5101055;28;20225;-81
2021/12/17 12:18:18;;;;;;;10.40;10.10;;;4.90;99.90;;;;;;5101771;28;20234;-81
2021/12/17 12:21:02;;;;;;;10.77;10.47;;;4.80;99.90;;;;;;5101745;28;20305;-81
2021/12/17 12:23:49;;;;;;;10.33;10.03;;;4.80;99.90;;;;;;5102465;28;20237;-81
2021/12/17 12:26:35;;;;;;;10.33;10.03;;;4.90;99.90;;;;;;5101270;28;20217;-81
2021/12/17 12:29:13;;;;;;;10.13;9.83;;;4.90;99.90;;;;;;5102319;28;20320;-81
2021/12/17 12:31:48;;;;;;;9.93;9.63;;;4.90;99.90;;;;;;5101463;28;20279;-81
2021/12/17 12:34:18;;;;;;;10.10;9.80;;;4.90;99.90;;;;;;5100946;28;20229;-81
2021/12/17 12:36:52;;;;;;;10.10;9.80;;;4.90;99.90;;;;;;5099790;28;20248;-81
2021/12/17 12:39:23;;;;;;;10.50;10.20;;;4.90;99.90;;;;;;5102184;28;20279;-81
2021/12/17 12:42:02;;;;;;;10.40;10.10;;;4.80;99.90;;;;;;5102436;28;20233;-80
2021/12/17 12:45:09;;;;;;;10.50;10.20;;;4.70;99.90;;;;;;5100705;28;20225;-81
2021/12/17 12:47:48;;;;;;;10.20;9.90;;;4.70;99.90;;;;;;5102437;28;20221;-81
2021/12/17 12:50:22;;;;;;;10.27;9.97;;;4.70;99.90;;;;;;5100353;28;20343;-81
2021/12/17 12:52:56;;;;;;;10.30;10.00;;;4.80;99.90;;;;;;5100228;28;20247;-81
2021/12/17 12:55:32;;;;;;;10.23;9.93;;;4.70;99.90;;;;;;5100306;28;20263;-81
2021/12/17 12:58:10;;;;;;;10.40;10.10;;;4.80;99.90;;;;;;5101161;28;21024;-81
2021/12/17 13:00:44;;;;;;;10.30;10.00;;;4.70;99.90;;;;;;5101783;28;20262;-81
2021/12/17 13:03:15;;;;;;;10.20;9.90;;;4.70;99.90;;;;;;5101224;28;20232;-81
2021/12/17 13:05:45;;;;;;;10.10;9.80;;;4.70;99.90;;;;;;5100842;28;20257;-81
2021/12/17 13:08:17;;;;;;;10.07;9.77;;;4.80;99.90;;;;;;5104629;28;20221;-80
2021/12/17 13:10:49;;;;;;;10.07;9.77;;;4.80;99.90;;;;;;5104025;28;20237;-81
2021/12/17 13:13:22;;;;;;;10.13;9.83;;;4.70;99.90;;;;;;5102118;28;20329;-81
2021/12/17 13:16:05;;;;;;;9.97;9.67;;;4.60;99.90;;;;;;5104413;28;20259;-81
2021/12/17 13:21:45;;;;;;;9.70;9.40;;;4.60;99.90;;;;;;5102657;28;20308;-81
2021/12/17 13:24:23;;;;;;;9.63;9.33;;;4.60;99.90;;;;;;5102207;28;20238;-81
2021/12/17 13:26:54;;;;;;;9.80;9.50;;;4.70;99.90;;;;;;5102304;28;20232;-81
2021/12/17 13:29:24;;;;;;;9.53;9.23;;;4.70;99.90;;;;;;5089406;28;20253;-79
2021/12/17 13:31:56;;;;;;;9.70;9.40;;;4.70;99.90;;;;;;5090739;28;20241;-81
2021/12/17 13:34:29;;;;;;;10.07;9.77;;;4.80;99.90;;;;;;5095641;28;20276;-81
2021/12/17 13:37:05;;;;;;;9.50;9.20;;;4.80;99.90;;;;;;5090040;28;20253;-80
2021/12/17 13:39:41;;;;;;;9.70;9.40;;;4.80;99.90;;;;;;5097810;28;20209;-82
2021/12/17 13:42:11;;;;;;;9.73;9.43;;;4.60;99.90;;;;;;5061213;28;20230;-79
2021/12/17 13:44:43;;;;;;;9.50;9.20;;;4.60;99.90;;;;;;5061277;28;20281;-80
2021/12/17 13:47:22;;;;;;;9.77;9.47;;;4.60;99.90;;;;;;5063138;28;20314;-80
2021/12/17 13:49:53;;;;;;;9.60;9.30;;;4.60;99.90;;;;;;5061872;28;20940;-80
2021/12/17 13:52:25;;;;;;;9.80;9.50;;;4.50;99.90;;;;;;5061766;28;21034;-79
2021/12/17 13:54:56;;;;;;;9.50;9.20;;;4.50;99.90;;;;;;5075413;28;20235;-77
2021/12/17 13:57:27;;;;;;;9.70;9.40;;;4.60;99.90;;;;;;5093575;28;20243;-79
2021/12/17 14:00:04;;;;;;;9.80;9.50;;;4.60;99.90;;;;;;5096410;28;20222;-78
2021/12/17 14:02:36;;;;;;;9.90;9.60;;;4.60;99.90;;;;;;5088339;28;20241;-78
2021/12/17 14:05:07;;;;;;;9.80;9.50;;;4.60;99.90;;;;;;5082221;28;20234;-80
2021/12/17 14:07:37;;;;;;;9.47;9.17;;;4.50;99.90;;;;;;5091087;28;20226;-78
2021/12/17 14:10:11;;;;;;;9.43;9.13;;;4.50;99.90;;;;;;5090948;28;20223;-79
2021/12/17 14:12:41;;;;;;;9.20;8.90;;;4.50;99.90;;;;;;5099461;28;20295;-79
2021/12/17 14:15:12;;;;;;;9.80;9.50;;;4.40;99.90;;;;;;5100234;28;20233;-78
2021/12/17 14:17:42;;;;;;;9.90;9.60;;;4.30;99.90;;;;;;5094901;28;20275;-80
2021/12/17 14:20:16;;;;;;;9.40;9.10;;;4.30;99.90;;;;;;5103519;28;20236;-80
2021/12/17 14:22:45;;;;;;;9.60;9.30;;;4.20;99.90;;;;;;5103482;28;20233;-80
2021/12/17 14:25:39;;;;;;;9.63;9.33;;;4.30;99.90;;;;;;5102782;28;20229;-78
2021/12/17 14:28:14;;;;;;;9.33;9.03;;;4.40;99.90;;;;;;5104210;28;20274;-78
2021/12/17 14:30:46;;;;;;;9.50;9.20;;;4.50;99.90;;;;;;5103943;28;20239;-79
2021/12/17 14:33:16;;;;;;;8.80;8.60;;;4.50;99.90;;;;;;5105011;28;20229;-78
2021/12/17 14:35:57;;;;;;;8.90;8.70;;;4.40;99.90;;;;;;5103843;28;20237;-79
2021/12/17 14:38:38;;;;;;;9.50;9.20;;;4.40;99.90;;;;;;5104954;28;20225;-80
2021/12/17 14:41:14;;;;;;;8.70;8.50;;;4.50;99.90;;;;;;5098574;28;20303;-79
2021/12/17 14:43:48;;;;;;;8.97;8.77;;;4.30;99.90;;;;;;5104235;28;20229;-78
2021/12/17 14:46:22;;;;;;;9.50;9.20;;;4.20;99.90;;;;;;5094191;28;20226;-80
2021/12/17 14:49:14;;;;;;;9.50;9.20;;;4.20;99.90;;;;;;5065352;28;20230;-80
2021/12/17 14:57:55;;;;;;;9.57;9.27;;;4.30;99.90;;;;;;5069559;28;20230;-81
2021/12/17 15:00:31;;;;;;;9.63;9.33;;;4.40;99.90;;;;;;5089760;28;20232;-80
2021/12/17 15:03:03;;;;;;;9.57;9.27;;;4.40;99.90;;;;;;5097738;28;20233;-80
2021/12/17 15:05:32;;;;;;;9.60;9.30;;;4.40;99.90;;;;;;5105700;28;20221;-79
2021/12/17 15:08:02;;;;;;;9.63;9.33;;;4.40;99.90;;;;;;5101739;27;20236;-78
2021/12/17 15:10:31;;;;;;;9.20;8.90;;;4.40;99.90;;;;;;5100875;27;20244;-79
2021/12/17 15:13:02;;;;;;;9.33;9.03;;;4.30;99.90;;;;;;5102583;27;20226;-78
2021/12/17 15:15:35;;;;;;;9.40;9.10;;;4.30;99.90;;;;;;5104470;28;20287;-80
2021/12/17 15:18:05;;;;;;;8.80;8.60;;;4.40;99.90;;;;;;5103861;28;20252;-80
2021/12/17 15:20:35;;;;;;;8.90;8.70;;;4.40;99.90;;;;;;5108216;28;20217;-79
2021/12/17 15:23:05;;;;;;;9.07;8.77;;;4.50;99.90;;;;;;5107985;28;20241;-80
2021/12/17 15:25:35;;;;;;;8.60;8.40;;;4.50;99.90;;;;;;5085232;28;20234;-79
2021/12/17 15:28:05;;;;;;;8.63;8.43;;;4.40;99.90;;;;;;5082374;28;20318;-79
2021/12/17 15:30:44;;;;;;;9.20;8.90;;;4.30;99.90;;;;;;5084446;28;20320;-79
2021/12/17 15:33:13;;;;;;;8.90;8.60;;;4.30;99.90;;;;;;5082930;28;20273;-80
2021/12/17 15:35:42;;;;;;;8.97;8.73;;;4.30;99.90;;;;;;5082609;28;20234;-80
2021/12/17 15:38:10;;;;;;;8.83;8.63;;;4.40;99.90;;;;;;5084584;28;20230;-80
2021/12/17 15:40:40;;;;;;;9.00;8.70;;;4.30;99.90;;;;;;5082603;28;20245;-79
2021/12/17 15:43:17;;;;;;;9.10;8.80;;;4.40;99.90;;;;;;5082226;28;20244;-79